createdAt,value
2023-03-02T00:02:17.619Z,30.63
2023-03-02T00:04:47.453Z,25.55
2023-03-02T00:07:16.913Z,30.85
2023-03-02T00:09:44.580Z,38.08
2023-03-02T00:12:12.217Z,19.85
2023-03-02T00:14:39.392Z,36.25
2023-03-02T00:17:07.969Z,38.70
2023-03-02T00:19:36.427Z,37.65
2023-03-02T00:22:03.707Z,39.33
2023-03-02T00:24:30.885Z,47.75
2023-03-02T00:26:58.170Z,43.83
2023-03-02T00:29:25.562Z,34.03
2023-03-02T00:31:52.797Z,43.20
2023-03-02T00:34:20.562Z,43.25
2023-03-02T00:36:49.402Z,46.50
2023-03-02T00:39:20.067Z,39.03
2023-03-02T00:41:47.578Z,40.28
2023-03-02T00:44:17.562Z,46.00
2023-03-02T00:46:45.322Z,42.28
2023-03-02T00:49:13.097Z,36.00
2023-03-02T00:51:40.466Z,44.25
2023-03-02T00:54:07.784Z,42.28
2023-03-02T00:56:35.213Z,20.88
2023-03-02T00:59:06.557Z,25.80
2023-03-02T01:01:33.695Z,30.92
2023-03-02T01:04:00.822Z,36.15
2023-03-02T01:06:27.939Z,45.90
2023-03-02T01:08:55.241Z,33.95
2023-03-02T01:11:23.210Z,31.98
2023-03-02T01:13:50.460Z,31.83
2023-03-02T01:16:18.141Z,51.05
2023-03-02T01:18:45.363Z,53.00
2023-03-02T01:21:13.847Z,23.92
2023-03-02T01:23:41.161Z,45.55
2023-03-02T01:26:08.563Z,45.40
2023-03-02T01:28:35.709Z,30.35
2023-03-02T01:31:04.495Z,40.42
2023-03-02T01:33:32.447Z,45.45
2023-03-02T01:35:59.885Z,49.97
2023-03-02T01:38:27.205Z,46.40
2023-03-02T01:40:54.409Z,48.15
2023-03-02T01:43:21.525Z,40.50
2023-03-02T01:45:52.193Z,56.70
2023-03-02T01:48:23.367Z,39.90
2023-03-02T01:50:50.750Z,51.10
2023-03-02T01:53:18.017Z,52.85
2023-03-02T01:55:45.943Z,42.58
2023-03-02T01:58:14.519Z,53.05
2023-03-02T02:00:42.201Z,38.63
2023-03-02T02:03:12.169Z,36.67
2023-03-02T02:05:40.578Z,28.83
2023-03-02T02:08:08.135Z,50.47
2023-03-02T02:10:36.035Z,39.92
2023-03-02T02:13:03.244Z,44.72
2023-03-02T02:15:30.524Z,50.30
2023-03-02T02:17:57.822Z,42.75
2023-03-02T02:20:27.736Z,48.17
2023-03-02T02:23:30.256Z,50.90
2023-03-02T02:26:12.041Z,45.03
2023-03-02T02:31:11.633Z,52.35
2023-03-02T02:33:39.894Z,51.35
2023-03-02T02:36:08.594Z,44.78
2023-03-02T02:38:36.437Z,23.55
2023-03-02T02:41:07.855Z,36.78
2023-03-02T02:43:35.188Z,47.20
2023-03-02T02:46:03.414Z,45.30
2023-03-02T02:48:32.256Z,44.05
2023-03-02T02:51:00.441Z,32.22
2023-03-02T02:53:42.763Z,50.95
2023-03-02T02:56:11.002Z,34.15
2023-03-02T02:58:40.747Z,49.40
2023-03-02T03:01:08.074Z,41.72
2023-03-02T03:03:37.275Z,53.03
2023-03-02T03:06:08.701Z,44.08
2023-03-02T03:08:50.088Z,50.97
2023-03-02T03:11:24.488Z,44.97
2023-03-02T03:13:54.727Z,43.35
2023-03-02T03:16:21.909Z,45.05
2023-03-02T03:18:50.094Z,39.60
2023-03-02T03:21:18.340Z,29.08
2023-03-02T03:23:46.159Z,47.85
2023-03-02T03:26:13.318Z,39.28
2023-03-02T03:28:40.621Z,52.20
2023-03-02T03:31:07.926Z,39.38
2023-03-02T03:33:35.273Z,51.80
2023-03-02T03:36:03.672Z,52.33
2023-03-02T03:38:30.978Z,39.42
2023-03-02T03:40:58.094Z,45.17
2023-03-02T03:43:25.186Z,38.70
2023-03-02T03:45:52.598Z,38.40
2023-03-02T03:48:20.015Z,31.20
2023-03-02T03:50:47.261Z,39.65
2023-03-02T03:53:14.403Z,44.17
2023-03-02T03:55:41.623Z,49.50
2023-03-02T03:58:09.300Z,43.55
2023-03-02T04:00:36.855Z,48.33
2023-03-02T04:03:04.197Z,47.60
2023-03-02T04:05:31.782Z,48.80
2023-03-02T04:08:02.188Z,24.38
2023-03-02T04:10:29.963Z,48.08
2023-03-02T04:12:57.248Z,28.30
2023-03-02T04:15:24.611Z,18.95
2023-03-02T04:17:51.912Z,40.08
2023-03-02T04:20:19.679Z,41.72
2023-03-02T04:22:47.759Z,45.38
2023-03-02T04:25:19.898Z,34.30
2023-03-02T04:27:47.547Z,30.05
2023-03-02T04:30:15.258Z,49.83
2023-03-02T04:32:43.973Z,39.80
2023-03-02T04:35:12.076Z,45.42
2023-03-02T04:37:40.017Z,39.17
2023-03-02T04:40:07.534Z,45.67
2023-03-02T04:42:34.886Z,47.95
2023-03-02T04:45:02.157Z,42.22
2023-03-02T04:47:29.345Z,19.52
2023-03-02T04:49:57.589Z,38.33
2023-03-02T04:52:25.458Z,38.80
2023-03-02T04:54:56.647Z,40.35
2023-03-02T04:57:23.776Z,36.15
2023-03-02T04:59:50.935Z,28.45
2023-03-02T05:02:18.601Z,45.42
2023-03-02T05:04:45.834Z,38.72
2023-03-02T05:07:13.128Z,28.13
2023-03-02T05:09:40.232Z,41.20
2023-03-02T05:12:07.560Z,32.60
2023-03-02T05:14:35.075Z,35.85
2023-03-02T05:17:02.189Z,34.33
2023-03-02T05:19:29.552Z,36.55
2023-03-02T05:21:57.178Z,44.40
2023-03-02T05:24:24.451Z,39.80
2023-03-02T05:26:51.830Z,44.95
2023-03-02T05:29:18.972Z,37.45
2023-03-02T05:31:47.282Z,23.25
2023-03-02T05:34:16.412Z,37.13
2023-03-02T05:36:43.641Z,29.35
2023-03-02T05:39:10.882Z,38.40
2023-03-02T05:41:38.265Z,30.42
2023-03-02T05:44:09.293Z,42.17
2023-03-02T05:46:36.795Z,36.33
2023-03-02T05:49:04.090Z,34.42
2023-03-02T05:51:31.366Z,44.25
2023-03-02T05:53:58.518Z,40.22
2023-03-02T05:56:25.959Z,44.42
2023-03-02T05:58:53.331Z,38.78
2023-03-02T06:01:20.636Z,39.90
2023-03-02T06:03:47.951Z,40.78
2023-03-02T06:06:15.182Z,31.23
2023-03-02T06:08:43.207Z,40.15
2023-03-02T06:11:10.910Z,35.90
2023-03-02T06:13:38.422Z,36.28
2023-03-02T06:16:06.085Z,41.40
2023-03-02T06:18:35.884Z,48.85
2023-03-02T06:21:03.087Z,46.40
2023-03-02T06:23:30.242Z,42.55
2023-03-02T06:25:58.215Z,32.78
2023-03-02T06:28:26.202Z,35.88
2023-03-02T06:30:53.446Z,38.90
2023-03-02T06:33:21.526Z,30.52
2023-03-02T06:35:49.602Z,40.30
2023-03-02T06:38:17.088Z,38.58
2023-03-02T06:40:44.548Z,32.33
2023-03-02T06:43:11.741Z,35.67
2023-03-02T06:45:39.091Z,44.92
2023-03-02T06:48:06.769Z,43.60
2023-03-02T06:50:34.696Z,41.83
2023-03-02T06:53:02.109Z,26.50
2023-03-02T06:55:29.468Z,26.60
2023-03-02T06:57:56.662Z,32.17
2023-03-02T07:00:28.228Z,36.63
2023-03-02T07:02:56.489Z,37.10
2023-03-02T07:05:24.943Z,21.55
2023-03-02T07:07:52.440Z,40.38
2023-03-02T07:10:19.700Z,44.33
2023-03-02T07:12:46.845Z,44.38
2023-03-02T07:15:14.143Z,40.78
2023-03-02T07:17:42.353Z,41.58
2023-03-02T07:20:10.163Z,37.60
2023-03-02T07:22:37.393Z,28.02
2023-03-02T07:25:04.628Z,43.58
2023-03-02T07:27:31.817Z,37.15
2023-03-02T07:29:58.970Z,40.85
2023-03-02T07:32:26.551Z,33.00
2023-03-02T07:34:53.735Z,24.38
2023-03-02T07:37:20.848Z,43.13
2023-03-02T07:39:49.172Z,29.63
2023-03-02T07:42:16.839Z,28.90
2023-03-02T07:44:44.260Z,34.55
2023-03-02T07:47:12.797Z,34.25
2023-03-02T07:49:39.974Z,25.80
2023-03-02T07:52:07.168Z,26.67
2023-03-02T07:54:34.546Z,34.35
2023-03-02T07:57:01.841Z,31.63
2023-03-02T07:59:29.333Z,24.77
2023-03-02T08:01:57.335Z,32.30
2023-03-02T08:04:24.769Z,23.95
2023-03-02T08:06:52.106Z,32.85
2023-03-02T08:09:19.424Z,31.98
2023-03-02T08:11:47.915Z,25.38
2023-03-02T08:14:15.100Z,30.40
2023-03-02T08:16:42.563Z,28.58
2023-03-02T08:19:10.482Z,24.15
2023-03-02T08:21:37.891Z,26.55
2023-03-02T08:24:05.212Z,20.98
2023-03-02T08:26:32.390Z,21.63
2023-03-02T08:28:59.913Z,18.98
2023-03-02T08:31:27.645Z,20.75
2023-03-02T08:33:54.956Z,20.38
2023-03-02T08:36:22.631Z,28.00
2023-03-02T08:38:50.129Z,25.75
2023-03-02T08:41:18.947Z,18.50
2023-03-02T08:43:47.288Z,27.20
2023-03-02T08:46:15.529Z,26.75
2023-03-02T08:48:42.783Z,21.35
2023-03-02T08:51:11.149Z,20.70
2023-03-02T08:53:39.531Z,20.70
2023-03-02T08:56:15.253Z,20.50
2023-03-02T08:58:42.403Z,25.10
2023-03-02T09:01:20.285Z,20.67
2023-03-02T09:03:47.503Z,18.67
2023-03-02T09:06:15.166Z,22.48
2023-03-02T09:08:42.495Z,24.08
2023-03-02T09:11:09.694Z,19.92
2023-03-02T09:13:36.977Z,22.27
2023-03-02T09:16:04.234Z,21.20
2023-03-02T09:18:32.031Z,20.35
2023-03-02T09:21:01.160Z,19.58
2023-03-02T09:25:55.658Z,18.63
2023-03-02T09:28:22.878Z,20.15
2023-03-02T09:30:51.201Z,22.63
2023-03-02T09:33:18.621Z,31.25
2023-03-02T09:35:46.605Z,23.98
2023-03-02T09:38:16.396Z,21.23
2023-03-02T09:40:55.050Z,16.00
2023-03-02T09:43:28.545Z,21.48
2023-03-02T09:46:13.906Z,22.58
2023-03-02T09:48:44.330Z,23.45
2023-03-02T09:51:25.627Z,16.70
2023-03-02T09:53:53.050Z,21.77
2023-03-02T09:56:20.716Z,24.23
2023-03-02T09:58:57.589Z,15.85
2023-03-02T10:01:33.373Z,19.45
2023-03-02T10:04:20.945Z,24.27
2023-03-02T10:06:48.223Z,23.90
2023-03-02T10:09:15.724Z,16.42
2023-03-02T10:15:15.237Z,23.05
2023-03-02T10:18:04.641Z,21.13
2023-03-02T10:20:37.384Z,23.92
2023-03-02T10:27:11.299Z,19.45
2023-03-02T10:29:48.576Z,22.70
2023-03-02T10:32:45.001Z,17.48
2023-03-02T10:35:23.161Z,21.02
2023-03-02T10:38:12.926Z,17.02
2023-03-02T10:40:44.380Z,22.15
2023-03-02T10:43:26.565Z,22.63
2023-03-02T10:46:04.308Z,20.70
2023-03-02T10:48:31.791Z,18.20
2023-03-02T10:51:00.624Z,18.52
2023-03-02T10:53:29.029Z,20.80
2023-03-02T10:55:56.163Z,18.52
2023-03-02T10:58:27.905Z,15.43
2023-03-02T11:00:58.055Z,17.88
2023-03-02T11:03:25.316Z,17.15
2023-03-02T11:05:52.586Z,19.05
2023-03-02T11:08:19.819Z,20.45
2023-03-02T11:11:01.204Z,19.40
2023-03-02T11:13:28.875Z,21.58
2023-03-02T11:15:59.716Z,15.45
2023-03-02T11:18:27.123Z,18.35
2023-03-02T11:20:56.159Z,17.50
2023-03-02T11:23:27.754Z,16.83
2023-03-02T11:25:56.927Z,15.02
2023-03-02T11:28:46.809Z,11.95
2023-03-02T11:31:17.566Z,17.30
2023-03-02T11:33:56.161Z,20.17
2023-03-02T11:36:31.422Z,13.90
2023-03-02T11:38:58.626Z,14.40
2023-03-02T11:41:30.283Z,16.20
2023-03-02T11:44:00.403Z,13.07
2023-03-02T11:46:30.661Z,13.20
2023-03-02T11:49:02.079Z,17.85
2023-03-02T11:51:30.922Z,17.98
2023-03-02T11:54:03.116Z,14.23
2023-03-02T11:56:34.294Z,13.38
2023-03-02T11:59:04.977Z,15.73
2023-03-02T12:01:34.586Z,12.18
2023-03-02T12:04:09.884Z,9.75
2023-03-02T12:06:41.041Z,16.60
2023-03-02T12:09:12.782Z,13.00
2023-03-02T12:11:42.328Z,12.85
2023-03-02T12:14:38.004Z,13.02
2023-03-02T12:17:29.905Z,10.38
2023-03-02T12:20:20.375Z,11.07
2023-03-02T12:22:47.679Z,12.05
2023-03-02T12:25:20.942Z,12.57
2023-03-02T12:27:49.339Z,10.75
2023-03-02T12:30:18.608Z,9.25
2023-03-02T12:32:48.299Z,10.73
2023-03-02T12:35:18.482Z,13.32
2023-03-02T12:37:57.148Z,13.95
2023-03-02T12:40:47.184Z,12.73
2023-03-02T12:43:17.571Z,15.30
2023-03-02T12:45:57.541Z,13.60
2023-03-02T12:48:27.997Z,10.88
2023-03-02T12:50:59.927Z,10.63
2023-03-02T12:53:27.773Z,11.13
2023-03-02T12:55:55.006Z,9.80
2023-03-02T12:58:27.800Z,10.52
2023-03-02T13:00:59.405Z,10.85
2023-03-02T13:03:27.565Z,14.60
2023-03-02T13:06:02.428Z,11.27
2023-03-02T13:08:30.131Z,12.95
2023-03-02T13:11:01.933Z,10.80
2023-03-02T13:13:45.533Z,11.52
2023-03-02T13:16:23.391Z,13.77
2023-03-02T13:18:55.355Z,12.45
2023-03-02T13:21:22.673Z,9.65
2023-03-02T13:23:51.903Z,12.45
2023-03-02T13:26:33.090Z,9.93
2023-03-02T13:29:07.776Z,12.05
2023-03-02T13:31:35.518Z,10.52
2023-03-02T13:34:02.761Z,9.40
2023-03-02T13:36:38.630Z,9.55
2023-03-02T13:39:07.628Z,9.23
2023-03-02T13:41:36.588Z,11.18
2023-03-02T13:44:30.358Z,8.95
2023-03-02T13:46:57.957Z,8.65
2023-03-02T13:49:29.280Z,11.13
2023-03-02T13:52:05.905Z,8.95
2023-03-02T13:54:36.291Z,9.20
2023-03-02T13:57:04.484Z,11.10
2023-03-02T13:59:32.408Z,10.35
2023-03-02T14:01:59.601Z,14.23
2023-03-02T14:04:27.511Z,18.38
2023-03-02T14:06:55.553Z,16.33
2023-03-02T14:09:23.001Z,15.63
2023-03-02T14:11:54.954Z,14.90
2023-03-02T14:14:23.987Z,7.57
2023-03-02T14:16:51.754Z,16.20
2023-03-02T14:19:20.130Z,14.35
2023-03-02T14:21:48.046Z,12.68
2023-03-02T14:24:15.713Z,16.15
2023-03-02T14:26:44.134Z,11.25
2023-03-02T14:29:26.776Z,13.07
2023-03-02T14:31:55.086Z,12.93
2023-03-02T14:34:22.242Z,15.40
2023-03-02T14:36:51.671Z,14.63
2023-03-02T14:39:30.932Z,14.25
2023-03-02T14:41:58.526Z,15.50
2023-03-02T14:44:25.932Z,11.95
2023-03-02T14:46:53.187Z,12.25
2023-03-02T14:49:21.083Z,13.05
2023-03-02T14:51:56.070Z,14.93
2023-03-02T14:56:50.683Z,13.50
2023-03-02T14:59:17.974Z,16.65
2023-03-02T15:01:46.294Z,13.45
2023-03-02T15:04:13.756Z,10.52
2023-03-02T15:06:41.925Z,15.23
2023-03-02T15:09:09.178Z,14.45
2023-03-02T15:11:36.475Z,11.23
2023-03-02T15:14:03.680Z,10.32
2023-03-02T15:16:31.008Z,13.68
2023-03-02T15:18:58.989Z,12.20
2023-03-02T15:21:26.415Z,14.70
2023-03-02T15:23:53.967Z,13.00
2023-03-02T15:26:21.142Z,13.25
2023-03-02T15:28:51.169Z,15.57
2023-03-02T15:31:18.714Z,13.57
2023-03-02T15:33:46.303Z,14.02
2023-03-02T15:36:14.195Z,13.27
2023-03-02T15:38:41.456Z,12.63
2023-03-02T15:41:09.991Z,12.05
2023-03-02T15:43:39.448Z,15.13
2023-03-02T15:46:09.127Z,14.43
2023-03-02T15:48:36.977Z,15.93
2023-03-02T15:51:07.833Z,15.68
2023-03-02T15:53:38.041Z,16.10
2023-03-02T15:56:09.740Z,16.00
2023-03-02T15:58:37.625Z,17.45
2023-03-02T16:01:08.597Z,17.88
2023-03-02T16:03:35.779Z,17.00
2023-03-02T16:06:03.267Z,14.63
2023-03-02T16:08:30.477Z,14.25
2023-03-02T16:11:01.916Z,19.38
2023-03-02T16:13:30.410Z,16.52
2023-03-02T16:15:57.956Z,21.52
2023-03-02T16:18:25.105Z,15.77
2023-03-02T16:20:52.298Z,49.00
2023-03-02T16:23:19.572Z,23.90
2023-03-02T16:25:49.669Z,18.00
2023-03-02T16:28:20.956Z,15.50
2023-03-02T16:30:49.051Z,15.60
2023-03-02T16:33:18.921Z,14.43
2023-03-02T16:35:46.150Z,13.82
2023-03-02T16:38:13.282Z,11.00
2023-03-02T16:40:40.864Z,16.23
2023-03-02T16:43:11.173Z,15.63
2023-03-02T16:45:38.473Z,16.65
2023-03-02T16:48:08.188Z,16.45
2023-03-02T16:50:35.319Z,15.55
2023-03-02T16:53:02.926Z,16.70
2023-03-02T16:55:30.182Z,17.38
2023-03-02T16:57:57.320Z,16.77
2023-03-02T17:00:25.298Z,19.63
2023-03-02T17:02:52.482Z,16.77
2023-03-02T17:05:20.418Z,29.77
2023-03-02T17:07:47.704Z,25.10
2023-03-02T17:10:17.120Z,21.52
2023-03-02T17:12:44.341Z,19.15
2023-03-02T17:15:13.927Z,20.48
2023-03-02T17:17:42.301Z,18.65
2023-03-02T17:20:10.544Z,24.63
2023-03-02T17:22:37.826Z,20.73
2023-03-02T17:25:05.399Z,21.17
2023-03-02T17:27:32.567Z,20.02
2023-03-02T17:30:00.325Z,19.85
2023-03-02T17:32:27.717Z,19.90
2023-03-02T17:34:57.945Z,21.17
2023-03-02T17:37:26.012Z,22.65
2023-03-02T17:39:53.287Z,20.80
2023-03-02T17:42:20.758Z,21.33
2023-03-02T17:44:48.102Z,25.95
2023-03-02T17:47:15.754Z,20.95
2023-03-02T17:49:47.503Z,20.63
2023-03-02T17:52:18.140Z,19.80
2023-03-02T17:54:45.487Z,26.80
2023-03-02T17:57:12.772Z,21.10
2023-03-02T17:59:40.011Z,16.50
2023-03-02T18:02:07.154Z,21.02
2023-03-02T18:04:34.371Z,23.33
2023-03-02T18:07:01.935Z,18.95
2023-03-02T18:09:29.399Z,17.67
2023-03-02T18:11:56.713Z,23.17
2023-03-02T18:14:28.349Z,19.98
2023-03-02T18:16:55.540Z,20.65
2023-03-02T18:19:22.839Z,21.00
2023-03-02T18:21:50.089Z,18.92
2023-03-02T18:24:17.318Z,20.60
2023-03-02T18:26:44.481Z,19.00
2023-03-02T18:29:11.789Z,25.35
2023-03-02T18:31:39.097Z,20.20
2023-03-02T18:34:06.386Z,18.40
2023-03-02T18:36:33.582Z,18.40
2023-03-02T18:39:00.772Z,37.95
2023-03-02T18:41:27.950Z,18.98
2023-03-02T18:43:55.334Z,20.27
2023-03-02T18:46:23.944Z,17.58
2023-03-02T18:48:51.848Z,17.25
2023-03-02T18:51:19.537Z,21.77
2023-03-02T18:53:47.738Z,18.35
2023-03-02T18:56:15.045Z,18.52
2023-03-02T18:58:42.536Z,12.57
2023-03-02T19:01:09.842Z,19.50
2023-03-02T19:03:38.665Z,16.10
2023-03-02T19:06:07.326Z,18.08
2023-03-02T19:08:35.651Z,11.98
2023-03-02T19:11:03.213Z,21.45
2023-03-02T19:13:30.374Z,17.85
2023-03-02T19:16:01.955Z,20.17
2023-03-02T19:18:29.426Z,10.55
2023-03-02T19:20:57.875Z,13.20
2023-03-02T19:23:25.576Z,17.08
2023-03-02T19:25:53.616Z,17.38
2023-03-02T19:28:21.718Z,22.58
2023-03-02T19:30:51.167Z,28.08
2023-03-02T19:33:18.995Z,18.85
2023-03-02T19:35:46.284Z,22.05
2023-03-02T19:38:13.430Z,13.65
2023-03-02T19:40:41.041Z,32.10
2023-03-02T19:43:08.220Z,17.60
2023-03-02T19:45:36.225Z,20.15
2023-03-02T19:48:05.776Z,18.70
2023-03-02T19:50:33.222Z,21.98
2023-03-02T19:53:00.570Z,15.73
2023-03-02T19:55:27.835Z,23.55
2023-03-02T19:58:00.990Z,26.25
2023-03-02T20:00:29.892Z,25.08
2023-03-02T20:02:57.869Z,22.95
2023-03-02T20:05:27.319Z,20.25
2023-03-02T20:07:55.027Z,19.50
2023-03-02T20:10:27.752Z,23.50
2023-03-02T20:12:54.916Z,21.38
2023-03-02T20:15:22.401Z,23.40
2023-03-02T20:17:49.661Z,23.45
2023-03-02T20:20:16.943Z,19.60
2023-03-02T20:22:45.527Z,22.83
2023-03-02T20:25:14.495Z,24.80
2023-03-02T20:27:41.824Z,23.17
2023-03-02T20:30:11.523Z,22.00
2023-03-02T20:32:38.729Z,25.08
2023-03-02T20:35:06.356Z,25.00
2023-03-02T20:37:33.645Z,26.58
2023-03-02T20:40:00.964Z,21.40
2023-03-02T20:42:31.236Z,23.70
2023-03-02T20:44:59.776Z,21.80
2023-03-02T20:47:27.074Z,23.90
2023-03-02T20:49:55.667Z,27.83
2023-03-02T20:52:23.460Z,27.58
2023-03-02T20:54:50.883Z,23.50
2023-03-02T20:57:19.780Z,22.67
2023-03-02T20:59:47.226Z,31.92
2023-03-02T21:02:15.559Z,29.00
2023-03-02T21:04:43.612Z,28.60
2023-03-02T21:07:10.875Z,20.88
2023-03-02T21:09:38.263Z,29.70
2023-03-02T21:12:08.393Z,28.20
2023-03-02T21:14:36.327Z,32.00
2023-03-02T21:17:03.685Z,31.40
2023-03-02T21:19:31.085Z,27.90
2023-03-02T21:21:58.617Z,28.20
2023-03-02T21:24:25.699Z,27.27
2023-03-02T21:26:54.362Z,28.52
2023-03-02T21:29:23.216Z,30.42
2023-03-02T21:31:51.171Z,24.13
2023-03-02T21:34:22.272Z,20.58
2023-03-02T21:36:53.150Z,22.50
2023-03-02T21:39:23.849Z,26.65
2023-03-02T21:41:51.511Z,26.55
2023-03-02T21:44:19.354Z,31.50
2023-03-02T21:46:46.757Z,33.15
2023-03-02T21:49:21.067Z,35.25
2023-03-02T21:51:49.869Z,29.92
2023-03-02T21:54:17.383Z,38.50
2023-03-02T21:56:44.846Z,38.63
2023-03-02T21:59:14.488Z,35.80
2023-03-02T22:01:41.960Z,18.80
2023-03-02T22:04:09.466Z,31.73
2023-03-02T22:06:37.768Z,22.40
2023-03-02T22:09:05.427Z,27.10
2023-03-02T22:11:36.917Z,21.42
2023-03-02T22:14:18.179Z,38.35
2023-03-02T22:16:48.044Z,32.60
2023-03-02T22:19:21.570Z,23.33
2023-03-02T22:21:49.593Z,22.52
2023-03-02T22:24:24.948Z,38.78
2023-03-02T22:26:59.191Z,35.40
2023-03-02T22:29:28.436Z,37.83
2023-03-02T22:34:24.522Z,28.98
2023-03-02T22:36:51.924Z,29.50
2023-03-02T22:39:26.944Z,34.03
2023-03-02T22:41:55.383Z,28.15
2023-03-02T22:44:23.793Z,31.00
2023-03-02T22:46:52.119Z,32.42
2023-03-02T22:49:19.436Z,20.05
2023-03-02T22:51:46.861Z,36.53
2023-03-02T22:54:25.190Z,33.40
2023-03-02T22:56:53.426Z,33.13
2023-03-02T22:59:22.734Z,33.70
2023-03-02T23:04:17.274Z,26.48
2023-03-02T23:06:46.339Z,29.52
2023-03-02T23:09:18.553Z,19.75
2023-03-02T23:11:45.998Z,29.52
2023-03-02T23:14:26.322Z,31.45
2023-03-02T23:16:55.804Z,24.98
2023-03-02T23:19:29.967Z,36.63
2023-03-02T23:21:57.207Z,17.25
2023-03-02T23:24:24.510Z,29.40
2023-03-02T23:26:52.511Z,31.17
2023-03-02T23:29:20.413Z,25.58
2023-03-02T23:31:47.933Z,26.70
2023-03-02T23:34:15.120Z,24.67
2023-03-02T23:36:42.650Z,27.10
2023-03-02T23:39:10.245Z,25.70
2023-03-02T23:41:38.838Z,25.10
2023-03-02T23:44:07.386Z,24.88
2023-03-02T23:46:34.587Z,26.35
2023-03-02T23:49:01.999Z,23.13
2023-03-02T23:51:29.514Z,17.92
2023-03-02T23:53:56.828Z,27.20
2023-03-02T23:56:24.037Z,18.95
2023-03-02T23:58:51.164Z,24.15
